createdAt,value
2017-11-05T00:00:14.459Z,12.72
2017-11-05T00:06:18.266Z,12.68
2017-11-05T00:12:21.738Z,12.76
2017-11-05T00:18:25.215Z,12.78
2017-11-05T00:24:28.694Z,12.76
2017-11-05T00:30:32.158Z,12.65
2017-11-05T00:36:36.396Z,12.54
2017-11-05T00:42:40.172Z,12.45
2017-11-05T00:48:44.005Z,12.27
2017-11-05T00:54:47.574Z,12.15
2017-11-05T01:00:51.802Z,12.03
2017-11-05T01:06:55.262Z,11.74
2017-11-05T01:12:58.732Z,11.69
2017-11-05T01:19:02.225Z,11.60
2017-11-05T01:25:05.685Z,11.40
2017-11-05T01:31:09.234Z,11.29
2017-11-05T01:37:13.466Z,11.26
2017-11-05T01:43:16.937Z,11.27
2017-11-05T01:49:21.770Z,11.22
2017-11-05T01:55:25.311Z,11.20
2017-11-05T02:01:29.044Z,11.00
2017-11-05T02:07:32.782Z,11.01
2017-11-05T02:13:36.556Z,11.13
2017-11-05T02:19:40.338Z,11.07
2017-11-05T02:25:43.851Z,10.89
2017-11-05T02:31:47.312Z,10.89
2017-11-05T02:37:50.891Z,10.78
2017-11-05T02:43:54.343Z,10.72
2017-11-05T02:49:57.814Z,10.80
2017-11-05T02:56:02.377Z,10.88
2017-11-05T03:02:05.848Z,10.92
2017-11-05T03:08:09.635Z,10.93
2017-11-05T03:14:13.096Z,10.93
2017-11-05T03:20:16.569Z,10.92
2017-11-05T03:26:20.773Z,10.79
2017-11-05T03:32:24.329Z,10.76
2017-11-05T03:38:28.207Z,10.80
2017-11-05T03:44:32.194Z,10.88
2017-11-05T03:50:35.657Z,11.01
2017-11-05T03:56:39.115Z,10.93
2017-11-05T04:02:42.864Z,10.82
2017-11-05T04:08:46.300Z,10.85
2017-11-05T04:14:50.023Z,10.88
2017-11-05T04:20:53.809Z,10.87
2017-11-05T04:26:57.611Z,10.88
2017-11-05T04:33:01.494Z,10.83
2017-11-05T04:39:04.946Z,10.80
2017-11-05T04:45:08.420Z,10.83
2017-11-05T04:51:12.644Z,10.86
2017-11-05T04:57:16.453Z,10.76
2017-11-05T05:03:20.249Z,10.76
2017-11-05T05:09:24.093Z,10.75
2017-11-05T05:15:28.671Z,10.72
2017-11-05T05:21:32.159Z,10.76
2017-11-05T05:27:36.420Z,10.68
2017-11-05T05:33:39.883Z,10.76
2017-11-05T05:39:43.610Z,10.77
2017-11-05T05:45:47.060Z,10.62
2017-11-05T05:51:50.777Z,10.57
2017-11-05T05:57:54.243Z,10.54
2017-11-05T06:03:57.965Z,10.53
2017-11-05T06:10:01.423Z,10.56
2017-11-05T06:16:05.679Z,10.52
2017-11-05T06:22:09.126Z,10.48
2017-11-05T06:28:12.608Z,10.46
2017-11-05T06:34:16.425Z,10.56
2017-11-05T06:40:19.881Z,10.53
2017-11-05T06:46:23.336Z,10.53
2017-11-05T06:52:26.780Z,10.48
2017-11-05T06:58:30.305Z,10.52
2017-11-05T07:04:33.759Z,10.55
2017-11-05T07:10:37.242Z,10.49
2017-11-05T07:16:41.040Z,10.53
2017-11-05T07:22:44.760Z,10.53
2017-11-05T07:28:48.980Z,10.60
2017-11-05T07:34:52.580Z,10.61
2017-11-05T07:40:56.413Z,10.67
2017-11-05T07:46:59.882Z,10.75
2017-11-05T07:53:03.645Z,10.88
2017-11-05T07:59:07.480Z,10.95
2017-11-05T08:05:10.935Z,11.02
2017-11-05T08:11:14.742Z,10.92
2017-11-05T08:17:18.204Z,10.96
2017-11-05T08:23:21.687Z,10.89
2017-11-05T08:29:25.419Z,10.90
2017-11-05T08:35:28.878Z,10.88
2017-11-05T08:41:32.667Z,10.87
2017-11-05T08:47:36.123Z,10.77
2017-11-05T08:53:40.682Z,10.85
2017-11-05T08:59:44.269Z,10.90
2017-11-05T09:05:47.733Z,10.91
2017-11-05T09:11:52.041Z,10.86
2017-11-05T09:17:55.503Z,10.86
2017-11-05T09:23:58.977Z,10.88
2017-11-05T09:30:03.527Z,10.93
2017-11-05T09:36:06.977Z,10.97
2017-11-05T09:42:11.193Z,10.99
2017-11-05T09:48:15.022Z,11.16
2017-11-05T09:54:18.505Z,11.40
2017-11-05T10:00:22.669Z,11.50
2017-11-05T10:06:26.497Z,11.56
2017-11-05T10:12:30.301Z,11.51
2017-11-05T10:18:34.082Z,11.43
2017-11-05T10:24:37.536Z,11.27
2017-11-05T10:30:41.363Z,11.38
2017-11-05T10:36:44.827Z,11.30
2017-11-05T10:42:48.295Z,11.14
2017-11-05T10:48:51.791Z,11.03
2017-11-05T10:54:55.276Z,10.99
2017-11-05T11:00:58.735Z,11.03
2017-11-05T11:07:02.963Z,10.93
2017-11-05T11:13:06.462Z,10.41
2017-11-05T11:19:09.920Z,9.30
2017-11-05T11:25:14.140Z,8.95
2017-11-05T11:31:17.592Z,8.85
2017-11-05T11:37:21.445Z,8.83
2017-11-05T11:43:24.904Z,8.80
2017-11-05T11:49:28.395Z,8.83
2017-11-05T11:55:31.860Z,8.86
2017-11-05T12:01:35.321Z,8.83
2017-11-05T12:07:39.530Z,8.82
2017-11-05T12:13:43.772Z,8.83
2017-11-05T12:19:47.238Z,8.75
2017-11-05T12:25:50.754Z,8.76
2017-11-05T12:31:54.202Z,8.69
2017-11-05T12:37:58.425Z,8.54
2017-11-05T12:44:02.649Z,8.55
2017-11-05T12:50:06.098Z,8.54
2017-11-05T12:56:09.667Z,8.56
2017-11-05T13:02:13.123Z,8.61
2017-11-05T13:08:17.313Z,8.73
2017-11-05T13:14:20.884Z,8.77
2017-11-05T13:20:24.330Z,8.81
2017-11-05T13:26:27.794Z,8.91
2017-11-05T13:32:31.246Z,8.80
2017-11-05T13:38:34.697Z,8.74
2017-11-05T13:44:38.302Z,8.55
2017-11-05T13:50:41.857Z,8.58
2017-11-05T13:56:45.401Z,8.53
2017-11-05T14:02:48.878Z,8.40
2017-11-05T14:08:53.279Z,8.40
2017-11-05T14:14:56.725Z,8.35
2017-11-05T14:21:00.952Z,8.27
2017-11-05T14:27:05.198Z,8.15
2017-11-05T14:33:08.640Z,8.10
2017-11-05T14:39:12.113Z,8.11
2017-11-05T14:45:15.557Z,7.99
2017-11-05T14:51:19.816Z,7.76
2017-11-05T14:57:23.263Z,7.61
2017-11-05T15:03:27.477Z,7.50
2017-11-05T15:09:31.713Z,7.44
2017-11-05T15:15:35.163Z,7.42
2017-11-05T15:21:38.620Z,7.45
2017-11-05T15:27:42.065Z,7.45
2017-11-05T15:33:45.545Z,7.44
2017-11-05T15:39:49.004Z,7.37
2017-11-05T15:45:53.014Z,7.42
2017-11-05T15:51:56.459Z,7.44
2017-11-05T15:57:59.942Z,7.33
2017-11-05T16:04:03.394Z,7.34
2017-11-05T16:10:06.872Z,7.29
2017-11-05T16:16:11.110Z,7.23
2017-11-05T16:22:14.590Z,7.23
2017-11-05T16:28:18.050Z,7.28
2017-11-05T16:34:21.511Z,7.25
2017-11-05T16:40:24.977Z,7.23
2017-11-05T16:46:28.447Z,7.29
2017-11-05T16:52:32.673Z,7.26
2017-11-05T16:58:36.117Z,7.23
2017-11-05T17:04:39.730Z,7.24
2017-11-05T17:10:43.967Z,7.31
2017-11-05T17:16:48.417Z,7.32
2017-11-05T17:22:52.883Z,7.30
2017-11-05T17:28:56.347Z,7.21
2017-11-05T17:34:59.814Z,7.18
2017-11-05T17:41:04.041Z,7.21
2017-11-05T17:47:07.516Z,7.12
2017-11-05T17:53:10.985Z,7.07
2017-11-05T17:59:15.212Z,7.04
2017-11-05T18:05:18.689Z,7.00
2017-11-05T18:11:22.170Z,6.91
2017-11-05T18:17:25.638Z,6.89
2017-11-05T18:23:30.357Z,6.85
2017-11-05T18:29:34.599Z,6.89
2017-11-05T18:35:38.047Z,6.87
2017-11-05T18:41:41.523Z,6.95
2017-11-05T18:47:45.770Z,6.90
2017-11-05T18:53:49.271Z,6.98
2017-11-05T18:59:52.726Z,6.92
2017-11-05T19:05:56.197Z,6.93
2017-11-05T19:11:59.759Z,7.01
2017-11-05T19:18:03.985Z,7.01
2017-11-05T19:24:07.475Z,6.91
2017-11-05T19:30:10.958Z,6.89
2017-11-05T19:36:14.414Z,6.92
2017-11-05T19:42:18.657Z,6.78
2017-11-05T19:48:22.877Z,6.71
2017-11-05T19:54:26.337Z,6.76
2017-11-05T20:00:29.805Z,6.82
2017-11-05T20:06:33.256Z,6.74
2017-11-05T20:12:37.498Z,6.78
2017-11-05T20:18:40.978Z,6.89
2017-11-05T20:24:44.445Z,6.91
2017-11-05T20:30:48.685Z,6.89
2017-11-05T20:36:52.312Z,6.80
2017-11-05T20:42:55.799Z,6.81
2017-11-05T20:49:00.195Z,6.70
2017-11-05T20:55:03.666Z,6.64
2017-11-05T21:01:07.156Z,6.62
2017-11-05T21:07:10.617Z,6.56
2017-11-05T21:13:14.352Z,6.53
2017-11-05T21:19:18.585Z,6.45
2017-11-05T21:25:22.107Z,6.46
2017-11-05T21:31:25.572Z,6.41
2017-11-05T21:37:29.347Z,6.34
2017-11-05T21:43:33.563Z,6.30
2017-11-05T21:49:37.261Z,6.27
2017-11-05T21:55:40.705Z,6.26
2017-11-05T22:01:44.454Z,6.28
2017-11-05T22:07:48.287Z,6.36
2017-11-05T22:13:51.740Z,6.32
2017-11-05T22:19:55.198Z,6.30
2017-11-05T22:25:58.649Z,6.26
2017-11-05T22:32:02.102Z,6.24
2017-11-05T22:38:05.561Z,6.15
2017-11-05T22:44:09.022Z,6.07
2017-11-05T22:50:12.465Z,6.03
2017-11-05T22:56:16.219Z,5.99
2017-11-05T23:02:19.661Z,5.87
2017-11-05T23:08:23.969Z,5.72
2017-11-05T23:14:28.228Z,5.66
2017-11-05T23:20:31.677Z,5.47
2017-11-05T23:26:35.126Z,5.31
2017-11-05T23:32:39.728Z,5.28
2017-11-05T23:38:43.473Z,5.20
2017-11-05T23:44:47.001Z,5.11
2017-11-05T23:50:50.463Z,5.15
2017-11-05T23:56:54.247Z,5.24
